Time;durP1;ratioP1;P1;durP2;ratioP2;P2;SDS_P1;SDS_P2;PMS_P1;PMS_P2;Temp;Humidity;BMP_temperature;BMP_pressure;BME280_temperature;BME280_humidity;BME280_pressure;Samples;Min_cycle;Max_cycle;Signal;HPM_P1;HPM_P2
2022/10/24 00:00:30;;;;;;;4.97;3.75;;;;;;;15.85;100.00;99631.31;10391383;28;20057;-73
2022/10/24 00:05:31;;;;;;;5.47;4.07;;;;;;;15.84;100.00;99650.25;10393553;28;20053;-73
2022/10/24 00:10:32;;;;;;;8.52;4.47;;;;;;;15.71;100.00;99640.03;10430906;28;20920;-72
2022/10/24 00:15:34;;;;;;;5.13;4.05;;;;;;;15.74;100.00;99666.50;10417719;28;20057;-73
2022/10/24 00:20:37;;;;;;;9.70;4.35;;;;;;;15.78;100.00;99656.28;10435389;28;20056;-72
2022/10/24 00:25:38;;;;;;;9.50;4.15;;;;;;;15.81;100.00;99651.44;10415806;28;20045;-74
2022/10/24 00:30:39;;;;;;;5.20;4.00;;;;;;;15.78;100.00;99659.84;10418230;28;20123;-71
2022/10/24 00:35:41;;;;;;;4.57;3.92;;;;;;;15.73;100.00;99651.41;10430556;28;20545;-73
2022/10/24 00:40:42;;;;;;;7.03;3.40;;;;;;;15.75;100.00;99652.09;10433244;28;20052;-74
2022/10/24 00:45:52;;;;;;;6.13;3.30;;;;;;;15.70;100.00;99646.38;10432537;28;20048;-72
2022/10/24 00:50:57;;;;;;;7.13;4.10;;;;;;;15.68;100.00;99646.56;10421693;28;20052;-72
2022/10/24 00:56:00;;;;;;;6.25;3.72;;;;;;;15.65;100.00;99640.72;10416382;28;20078;-74
2022/10/24 01:01:03;;;;;;;6.90;4.25;;;;;;;15.57;100.00;99625.47;10433826;28;20097;-72
2022/10/24 01:06:17;;;;;;;5.13;3.70;;;;;;;15.58;100.00;99623.63;10414337;28;21167;-73
2022/10/24 01:11:37;;;;;;;6.80;3.60;;;;;;;15.54;100.00;99623.16;10406064;28;20053;-71
2022/10/24 01:16:49;;;;;;;4.63;3.42;;;;;;;15.53;100.00;99616.09;10394617;28;20044;-72
2022/10/24 01:22:00;;;;;;;8.55;3.65;;;;;;;15.50;100.00;99609.22;10395473;28;20059;-73
2022/10/24 01:27:08;;;;;;;6.50;3.45;;;;;;;15.48;100.00;99619.28;10394526;28;20052;-73
2022/10/24 01:32:37;;;;;;;4.85;3.05;;;;;;;15.48;100.00;99632.69;10399237;28;20041;-73
2022/10/24 01:38:03;;;;;;;5.85;3.65;;;;;;;15.45;100.00;99614.28;10398014;28;20041;-70
2022/10/24 01:43:10;;;;;;;5.50;3.40;;;;;;;15.40;100.00;99605.88;10395978;28;20709;-70
2022/10/24 01:48:16;;;;;;;7.05;3.92;;;;;;;15.33;100.00;99592.34;10427749;28;20041;-73
2022/10/24 01:53:18;;;;;;;4.70;3.15;;;;;;;15.31;100.00;99593.50;10409122;28;20052;-70
2022/10/24 01:58:25;;;;;;;5.65;3.35;;;;;;;15.29;100.00;99592.84;10397016;28;20045;-74
2022/10/24 02:03:35;;;;;;;7.53;3.60;;;;;;;15.27;100.00;99584.97;10391861;28;20491;-72
2022/10/24 02:08:42;;;;;;;6.85;3.22;;;;;;;15.30;100.00;99589.16;10396835;28;20052;-73
2022/10/24 02:13:48;;;;;;;4.50;3.20;;;;;;;15.30;100.00;99579.28;10386134;28;20041;-73
2022/10/24 02:18:52;;;;;;;6.15;3.72;;;;;;;15.28;100.00;99569.72;10389505;28;20511;-73
2022/10/24 02:24:02;;;;;;;6.18;3.15;;;;;;;15.26;100.00;99569.06;10384872;28;20510;-71
2022/10/24 02:29:10;;;;;;;5.10;3.42;;;;;;;15.24;100.00;99584.47;10385555;28;20037;-70
2022/10/24 02:34:13;;;;;;;5.28;3.13;;;;;;;15.25;100.00;99586.97;10391037;28;20045;-73
2022/10/24 02:39:15;;;;;;;8.38;3.42;;;;;;;15.29;100.00;99592.84;10397006;28;20065;-72
2022/10/24 02:44:18;;;;;;;6.88;3.55;;;;;;;15.25;100.00;99580.78;10393002;28;20052;-71
2022/10/24 02:49:19;;;;;;;5.78;3.80;;;;;;;15.23;100.00;99566.72;10396865;28;20120;-73
2022/10/24 02:54:21;;;;;;;6.28;3.45;;;;;;;15.20;100.00;99579.44;10396712;28;20056;-71
2022/10/24 02:59:22;;;;;;;7.47;4.20;;;;;;;15.23;100.00;99583.63;10397539;28;20506;-71
2022/10/24 03:04:23;;;;;;;5.78;3.95;;;;;;;15.19;100.00;99572.44;10396672;28;20615;-70
2022/10/24 03:09:25;;;;;;;5.40;3.40;;;;;;;15.20;100.00;99592.84;10382285;28;20045;-70
2022/10/24 03:14:26;;;;;;;7.38;3.63;;;;;;;15.26;100.00;99601.25;10377220;28;20060;-73
2022/10/24 03:19:27;;;;;;;11.13;4.03;;;;;;;15.24;100.00;99579.09;10376818;28;20049;-70
2022/10/24 03:24:29;;;;;;;8.88;3.80;;;;;;;15.16;100.00;99566.56;10380940;28;20053;-68
2022/10/24 03:29:44;;;;;;;5.57;3.50;;;;;;;15.15;100.00;99565.72;10383095;28;20281;-71
2022/10/24 03:34:46;;;;;;;6.55;3.80;;;;;;;15.18;100.00;99576.09;10382756;28;20581;-69
2022/10/24 03:39:47;;;;;;;7.00;3.80;;;;;;;15.20;100.00;99579.44;10379003;28;20068;-71
2022/10/24 03:44:48;;;;;;;6.72;4.00;;;;;;;15.19;100.00;99577.78;10395772;28;20049;-70
2022/10/24 03:49:50;;;;;;;7.25;4.03;;;;;;;15.28;100.00;99601.88;10378404;28;21295;-72
2022/10/24 03:54:51;;;;;;;6.20;3.55;;;;;;;15.29;100.00;99598.22;10375650;28;20056;-72
2022/10/24 03:59:52;;;;;;;4.30;3.50;;;;;;;15.34;100.00;99602.06;10374855;28;20052;-71
2022/10/24 04:04:53;;;;;;;7.05;4.13;;;;;;;15.39;100.00;99609.59;10375154;28;20084;-72
2022/10/24 04:09:56;;;;;;;9.30;4.30;;;;;;;15.41;100.00;99612.09;10365311;28;20598;-72
2022/10/24 04:14:57;;;;;;;5.78;3.70;;;;;;;15.41;100.00;99618.28;10366087;28;20057;-72
2022/10/24 04:20:05;;;;;;;7.45;4.10;;;;;;;15.43;100.00;99608.22;10414144;28;20041;-73
2022/10/24 04:25:07;;;;;;;6.22;3.70;;;;;;;15.43;100.00;99600.19;10415143;28;20056;-71
2022/10/24 04:30:10;;;;;;;5.63;4.00;;;;;;;15.37;100.00;99587.47;10419599;28;20045;-74
2022/10/24 04:35:17;;;;;;;8.98;5.00;;;;;;;15.41;100.00;99586.13;10416704;28;20071;-72
2022/10/24 04:40:18;;;;;;;5.88;4.32;;;;;;;15.47;100.00;99585.44;10395405;28;20062;-70
2022/10/24 04:45:19;;;;;;;9.18;4.03;;;;;;;15.49;100.00;99596.84;10415683;28;20070;-74
2022/10/24 04:50:21;;;;;;;7.68;4.18;;;;;;;15.44;100.00;99593.81;10418091;28;20056;-74
2022/10/24 04:55:22;;;;;;;7.32;4.03;;;;;;;15.52;100.00;99593.81;10417397;28;20045;-73
2022/10/24 05:00:23;;;;;;;8.30;3.92;;;;;;;15.53;100.00;99600.84;10401589;28;20045;-71
2022/10/24 05:05:25;;;;;;;8.23;4.57;;;;;;;15.48;100.00;99586.28;10417511;28;20044;-72
2022/10/24 05:10:26;;;;;;;10.15;4.07;;;;;;;15.47;100.00;99579.25;10409310;28;20541;-73
2022/10/24 05:15:28;;;;;;;5.82;3.67;;;;;;;15.54;100.00;99591.78;10414032;28;20135;-73
2022/10/24 05:20:30;;;;;;;8.10;4.10;;;;;;;15.59;100.00;99598.50;10378247;28;20050;-71
2022/10/24 05:25:32;;;;;;;15.07;5.82;;;;;;;15.56;100.00;99594.28;10376403;28;20558;-71
2022/10/24 05:30:33;;;;;;;5.82;4.45;;;;;;;15.56;100.00;99603.16;10377761;28;20045;-74
2022/10/24 05:35:35;;;;;;;5.57;3.63;;;;;;;15.54;100.00;99597.16;10375022;28;20150;-74
2022/10/24 05:40:36;;;;;;;7.72;4.10;;;;;;;15.49;100.00;99601.34;10379323;28;20667;-73
2022/10/24 05:45:37;;;;;;;7.90;4.57;;;;;;;15.50;100.00;99603.03;10387118;28;20805;-71
2022/10/24 05:50:39;;;;;;;11.88;4.25;;;;;;;15.47;100.00;99606.06;10374172;28;20084;-72
2022/10/24 05:55:40;;;;;;;8.90;5.18;;;;;;;15.48;100.00;99616.63;10377616;28;20719;-73
2022/10/24 06:00:41;;;;;;;8.55;5.32;;;;;;;15.52;100.00;99623.31;10377580;28;20101;-73
2022/10/24 06:05:43;;;;;;;9.52;4.72;;;;;;;15.58;100.00;99618.25;10373093;28;20056;-76
2022/10/24 06:10:49;;;;;;;9.55;4.72;;;;;;;15.60;100.00;99627.81;10371710;28;20380;-75
2022/10/24 06:15:50;;;;;;;11.63;4.72;;;;;;;15.60;100.00;99626.97;10370805;28;20048;-72
2022/10/24 06:20:52;;;;;;;8.07;4.22;;;;;;;15.65;100.00;99627.31;10379758;28;20400;-74
2022/10/24 06:25:56;;;;;;;11.20;5.13;;;;;;;15.62;100.00;99627.66;10373908;28;20786;-73
2022/10/24 06:31:02;;;;;;;8.43;5.20;;;;;;;15.62;100.00;99630.34;10372424;28;20415;-76
2022/10/24 06:36:06;;;;;;;7.15;5.47;;;;;;;15.60;100.00;99656.47;10373841;28;20049;-73
2022/10/24 06:41:12;;;;;;;6.13;4.80;;;;;;;15.56;100.00;99658.66;10370105;28;20080;-75
2022/10/24 06:46:15;;;;;;;8.20;4.70;;;;;;;15.56;100.00;99670.22;10376922;28;20050;-75
2022/10/24 06:51:16;;;;;;;11.93;7.53;;;;;;;15.45;100.00;99673.28;10377602;28;20101;-72
2022/10/24 06:56:18;;;;;;;12.13;6.50;;;;;;;15.44;100.00;99674.28;10372506;28;20586;-71
2022/10/24 07:01:23;;;;;;;14.48;7.35;;;;;;;15.44;100.00;99676.94;10371398;28;20072;-72
2022/10/24 07:06:27;;;;;;;16.63;6.20;;;;;;;15.53;100.00;99692.03;10372472;28;20077;-71
2022/10/24 07:11:28;;;;;;;;;;;;;;;15.53;100.00;99685.84;10373763;28;20049;-73
2022/10/24 07:16:30;;;;;;;14.23;9.05;;;;;;;15.56;100.00;99680.97;10398695;28;19971;-72
2022/10/24 07:21:32;;;;;;;8.80;5.97;;;;;;;15.70;100.00;99686.63;10376293;28;20565;-73
2022/10/24 07:26:33;;;;;;;9.38;5.70;;;;;;;15.77;100.00;99676.91;10378126;28;20853;-72
2022/10/24 07:31:35;;;;;;;17.13;5.95;;;;;;;15.77;100.00;99674.22;10380607;28;20049;-73
2022/10/24 07:36:36;;;;;;;8.90;5.85;;;;;;;15.83;100.00;99665.50;10379864;28;20132;-71
2022/10/24 07:41:43;;;;;;;33.85;26.38;;;;;;;15.88;99.93;99662.31;10400391;28;20114;-72
2022/10/24 07:46:45;;;;;;;17.92;9.63;;;;;;;15.82;98.22;99673.72;10415195;28;20049;-71
2022/10/24 07:51:46;;;;;;;15.07;6.78;;;;;;;15.84;99.50;99675.25;10397763;28;20048;-70
2022/10/24 07:56:47;;;;;;;32.13;17.15;;;;;;;15.89;100.00;99680.09;10418425;28;20067;-71
2022/10/24 08:01:49;;;;;;;10.25;6.10;;;;;;;16.01;99.09;99667.97;10418474;28;20419;-72
2022/10/24 08:06:50;;;;;;;14.65;5.57;;;;;;;16.08;97.09;99668.97;10416922;28;20318;-72
2022/10/24 08:11:51;;;;;;;12.07;4.82;;;;;;;16.20;95.82;99687.38;10416300;28;20056;-71
2022/10/24 08:16:53;;;;;;;16.92;5.22;;;;;;;16.31;94.64;99680.78;10395314;28;20048;-71
2022/10/24 08:21:54;;;;;;;10.38;4.70;;;;;;;16.46;96.36;99670.16;10411920;28;20095;-72
2022/10/24 08:26:55;;;;;;;13.98;4.40;;;;;;;16.50;94.61;99672.31;10413969;28;20064;-72
2022/10/24 08:31:57;;;;;;;13.85;6.00;;;;;;;16.70;95.88;99666.47;10411526;28;20501;-73
2022/10/24 08:36:58;;;;;;;14.82;4.65;;;;;;;16.88;95.80;99664.34;10401091;28;20041;-71
2022/10/24 08:42:03;;;;;;;15.93;4.60;;;;;;;17.10;92.06;99662.69;10421160;28;20049;-72
2022/10/24 08:47:18;;;;;;;11.18;4.82;;;;;;;17.53;91.03;99667.50;10433140;28;20053;-73
2022/10/24 08:52:22;;;;;;;12.13;5.00;;;;;;;18.11;88.67;99658.84;10430206;28;20095;-70
2022/10/24 08:57:30;;;;;;;8.75;4.47;;;;;;;18.59;85.37;99642.22;10416839;28;20120;-75
2022/10/24 09:02:36;;;;;;;10.90;4.43;;;;;;;19.00;81.04;99653.22;10409244;28;20144;-70
2022/10/24 09:07:39;;;;;;;10.00;4.25;;;;;;;18.98;81.07;99666.09;10397565;28;20045;-74
2022/10/24 09:12:40;;;;;;;8.65;4.07;;;;;;;18.96;81.40;99651.97;10417993;28;20049;-73
2022/10/24 09:17:42;;;;;;;12.13;4.30;;;;;;;19.05;82.50;99649.94;10411138;28;20051;-71
2022/10/24 09:22:44;;;;;;;12.13;3.90;;;;;;;18.98;82.04;99641.81;10417340;28;20857;-71
2022/10/24 09:27:45;;;;;;;13.43;4.93;;;;;;;18.80;83.38;99650.31;10416861;28;20045;-71
2022/10/24 09:32:47;;;;;;;10.80;3.75;;;;;;;18.99;81.88;99656.97;10418494;28;20048;-70
2022/10/24 09:37:54;;;;;;;11.35;3.60;;;;;;;19.33;80.72;99662.66;10398746;28;20057;-71
2022/10/24 09:43:14;;;;;;;12.95;4.40;;;;;;;20.31;77.93;99668.06;10402397;28;20056;-70
2022/10/24 09:48:35;;;;;;;9.00;3.30;;;;;;;21.36;71.42;99681.22;10415105;28;20041;-71
2022/10/24 09:53:56;;;;;;;6.78;3.25;;;;;;;20.93;71.42;99678.91;10415842;28;20045;-71
2022/10/24 09:59:16;;;;;;;8.93;3.22;;;;;;;20.89;71.74;99666.81;10417165;28;20120;-70
2022/10/24 10:04:18;;;;;;;8.57;3.80;;;;;;;20.10;73.03;99680.66;10383410;28;20698;-71
2022/10/24 10:09:26;;;;;;;10.95;3.78;;;;;;;19.35;76.02;99688.44;10376090;28;20060;-74
2022/10/24 10:14:28;;;;;;;10.85;3.65;;;;;;;19.41;75.97;99681.38;10372422;28;20045;-75
2022/10/24 10:19:37;;;;;;;9.40;3.58;;;;;;;19.84;74.26;99685.91;10369146;28;22960;-73
2022/10/24 10:24:42;;;;;;;7.65;2.90;;;;;;;20.68;68.92;99690.28;10371482;28;20750;-73
2022/10/24 10:29:43;;;;;;;11.00;2.97;;;;;;;20.34;70.49;99691.97;10373386;28;20045;-69
2022/10/24 10:34:57;;;;;;;8.35;3.40;;;;;;;20.35;68.49;99690.13;10374672;28;20060;-73
2022/10/24 10:40:18;;;;;;;5.18;2.10;;;;;;;20.87;66.83;99690.53;10376445;28;20683;-72
2022/10/24 10:45:37;;;;;;;9.60;2.20;;;;;;;21.17;64.62;99689.13;10372966;28;20060;-72
2022/10/24 10:50:55;;;;;;;7.10;2.53;;;;;;;22.18;60.40;99676.31;10375238;28;20045;-70
2022/10/24 10:56:10;;;;;;;8.05;3.00;;;;;;;21.51;62.35;99687.31;10378319;28;20041;-73
2022/10/24 11:01:23;;;;;;;5.07;2.38;;;;;;;21.02;64.36;99677.66;10375909;28;20423;-70
2022/10/24 11:06:45;;;;;;;7.93;2.45;;;;;;;20.66;64.29;99676.13;10380262;28;20517;-70
2022/10/24 11:12:00;;;;;;;5.85;2.20;;;;;;;20.52;65.94;99677.09;10377836;28;21350;-70
2022/10/24 11:17:13;;;;;;;9.77;2.65;;;;;;;21.01;64.46;99676.00;10376929;28;20050;-73
2022/10/24 11:22:29;;;;;;;6.70;2.42;;;;;;;21.18;62.83;99682.69;10382532;28;20547;-72
2022/10/24 11:27:40;;;;;;;6.88;2.38;;;;;;;20.97;64.21;99690.97;10386364;28;20045;-72
2022/10/24 11:32:48;;;;;;;6.03;3.53;;;;;;;20.93;63.10;99689.72;10393198;28;20735;-72
2022/10/24 11:37:56;;;;;;;4.50;1.95;;;;;;;20.95;61.82;99684.94;10390465;28;20176;-70
2022/10/24 11:43:09;;;;;;;5.28;1.67;;;;;;;21.10;60.76;99685.56;10387139;28;20428;-70
2022/10/24 11:48:29;;;;;;;4.68;1.90;;;;;;;21.55;59.80;99685.00;10395407;28;20384;-71
2022/10/24 11:53:34;;;;;;;6.22;1.42;;;;;;;21.58;59.34;99681.88;10434510;28;20040;-72
2022/10/24 11:58:46;;;;;;;7.50;2.00;;;;;;;21.21;58.92;99667.06;10434909;28;20055;-72
2022/10/24 12:04:23;;;;;;;7.10;2.17;;;;;;;21.23;58.61;99673.09;10412445;28;20045;-70
2022/10/24 12:09:43;;;;;;;6.18;2.58;;;;;;;23.16;54.74;99666.25;10429659;28;20048;-71
2022/10/24 12:15:07;;;;;;;5.35;2.10;;;;;;;24.31;49.92;99667.66;10426853;28;20728;-72
2022/10/24 12:20:18;;;;;;;8.38;2.15;;;;;;;27.32;44.30;99669.56;10431777;28;20048;-70
2022/10/24 12:25:36;;;;;;;6.90;2.45;;;;;;;28.47;38.65;99654.53;10434457;28;20045;-71
2022/10/24 12:30:38;;;;;;;4.97;1.42;;;;;;;30.86;35.23;99660.25;10433189;28;20040;-72
2022/10/24 12:35:39;;;;;;;6.60;1.50;;;;;;;34.10;30.12;99647.63;10433449;28;20423;-71
2022/10/24 12:40:44;;;;;;;6.47;1.25;;;;;;;28.55;35.37;99652.16;10434843;28;20055;-71
2022/10/24 12:45:45;;;;;;;7.15;2.22;;;;;;;27.38;37.71;99643.19;10434905;28;20052;-73
2022/10/24 12:50:56;;;;;;;3.37;0.70;;;;;;;24.32;42.83;99647.56;10423775;28;20056;-72
2022/10/24 12:55:57;;;;;;;4.95;1.83;;;;;;;23.53;43.78;99655.50;10428698;28;20051;-73
2022/10/24 13:01:24;;;;;;;3.60;0.80;;;;;;;22.78;44.93;99654.38;10446785;28;20045;-72
2022/10/24 13:06:43;;;;;;;2.95;0.95;;;;;;;24.72;39.55;99646.22;10421065;28;20056;-71
2022/10/24 13:12:07;;;;;;;4.82;1.10;;;;;;;28.63;32.13;99630.91;10434162;28;20056;-73
2022/10/24 13:17:14;;;;;;;;;;;;;;;24.64;39.18;99633.78;10437000;28;20710;-71
2022/10/24 13:22:28;;;;;;;1.70;0.70;;;;;;;23.78;40.29;99649.19;10394765;28;19928;-73
2022/10/24 13:27:30;;;;;;;4.68;0.93;;;;;;;24.57;40.04;99641.16;10396720;28;20683;-70
2022/10/24 13:32:34;;;;;;;3.17;0.80;;;;;;;23.11;42.34;99636.25;10394102;28;20063;-70
2022/10/24 13:37:43;;;;;;;3.80;0.82;;;;;;;23.08;42.44;99636.66;10421871;28;20053;-71
2022/10/24 13:42:53;;;;;;;2.10;1.02;;;;;;;22.89;44.21;99658.25;10389515;28;20690;-72
2022/10/24 13:48:00;;;;;;;3.90;0.82;;;;;;;22.31;44.63;99664.66;10416279;28;20048;-74
2022/10/24 13:53:13;;;;;;;6.07;0.70;;;;;;;21.63;46.55;99665.00;10418473;28;20052;-71
2022/10/24 13:58:19;;;;;;;5.15;1.65;;;;;;;21.75;45.92;99662.47;10417357;28;20056;-72
2022/10/24 14:03:24;;;;;;;3.75;0.93;;;;;;;21.57;46.94;99657.72;10431495;28;20045;-70
2022/10/24 14:08:30;;;;;;;3.42;1.40;;;;;;;22.32;45.48;99651.91;10414929;28;20040;-69
2022/10/24 14:13:37;;;;;;;2.20;0.70;;;;;;;21.92;45.86;99639.31;10419798;28;20052;-70
2022/10/24 14:18:40;;;;;;;2.30;1.10;;;;;;;21.42;46.94;99656.00;10415692;28;20638;-69
2022/10/24 14:23:41;;;;;;;4.60;0.93;;;;;;;21.08;48.06;99666.03;10401443;28;20714;-71
2022/10/24 14:28:48;;;;;;;4.07;0.90;;;;;;;20.79;48.95;99676.16;10392653;28;20053;-69
2022/10/24 14:33:53;;;;;;;3.88;1.35;;;;;;;20.66;48.87;99676.13;10415752;28;20060;-74
2022/10/24 14:38:58;;;;;;;2.30;1.02;;;;;;;20.55;48.34;99665.88;10418205;28;20052;-71
2022/10/24 14:43:59;;;;;;;3.15;0.65;;;;;;;20.64;48.20;99664.63;10411193;28;20238;-70
2022/10/24 14:49:29;;;;;;;4.15;0.90;;;;;;;21.62;45.34;99663.31;10442371;28;20676;-72
2022/10/24 14:54:32;;;;;;;3.72;1.88;;;;;;;21.76;45.03;99672.28;10437006;28;20052;-71
2022/10/24 14:59:37;;;;;;;3.72;1.88;;;;;;;21.34;47.25;99669.78;10417645;28;20396;-72
2022/10/24 15:04:45;;;;;;;3.50;1.10;;;;;;;20.97;47.70;99663.91;10422123;28;20055;-73
2022/10/24 15:10:10;;;;;;;3.33;1.48;;;;;;;20.54;48.81;99681.25;10426095;28;20053;-74
2022/10/24 15:15:45;;;;;;;3.30;1.08;;;;;;;20.37;49.43;99679.94;10406326;28;20136;-71
2022/10/24 15:20:48;;;;;;;1.67;0.77;;;;;;;20.16;49.82;99686.28;10378976;28;20065;-70
2022/10/24 15:25:59;;;;;;;3.13;0.93;;;;;;;20.05;50.04;99699.31;10382217;28;20052;-73
2022/10/24 15:31:00;;;;;;;4.10;1.00;;;;;;;19.96;50.82;99695.13;10377166;28;20045;-72
2022/10/24 15:36:02;;;;;;;3.13;0.70;;;;;;;19.88;50.87;99696.09;10400324;28;20053;-71
2022/10/24 15:41:08;;;;;;;3.25;0.98;;;;;;;19.84;51.27;99704.81;10390784;28;20056;-74
2022/10/24 15:46:09;;;;;;;6.50;1.03;;;;;;;19.65;50.77;99707.16;10382785;28;20057;-72
2022/10/24 15:51:15;;;;;;;2.67;1.10;;;;;;;19.49;51.64;99720.94;10386411;28;20049;-68
2022/10/24 15:56:16;;;;;;;3.42;0.80;;;;;;;19.35;51.58;99715.41;10376160;28;20554;-68
2022/10/24 16:01:34;;;;;;;2.67;0.70;;;;;;;19.28;51.96;99719.91;10378233;28;20577;-67
2022/10/24 16:06:40;;;;;;;2.75;0.77;;;;;;;19.20;52.40;99720.03;10381626;28;20075;-68
2022/10/24 16:11:41;;;;;;;7.30;1.05;;;;;;;19.11;52.40;99729.28;10385195;28;20067;-67
2022/10/24 16:16:43;;;;;;;3.55;0.80;;;;;;;19.01;52.53;99725.03;10381822;28;20561;-70
2022/10/24 16:21:44;;;;;;;5.00;0.77;;;;;;;18.97;52.89;99722.91;10379413;28;21589;-68
2022/10/24 16:26:45;;;;;;;2.95;0.80;;;;;;;18.85;53.09;99717.16;10380859;28;20474;-69
2022/10/24 16:31:49;;;;;;;1.88;0.77;;;;;;;18.85;53.85;99725.25;10380334;28;20053;-71
2022/10/24 16:36:54;;;;;;;6.60;1.42;;;;;;;18.75;53.75;99736.34;10383533;28;20053;-72
2022/10/24 16:41:57;;;;;;;4.30;1.30;;;;;;;18.68;54.03;99740.81;10380541;28;20054;-67
2022/10/24 16:46:58;;;;;;;8.55;1.73;;;;;;;18.59;54.47;99747.34;10379375;28;20057;-70
2022/10/24 16:51:59;;;;;;;4.40;1.65;;;;;;;18.51;54.95;99745.56;10384485;28;20151;-69
2022/10/24 16:57:02;;;;;;;6.30;2.22;;;;;;;18.42;55.31;99749.38;10378819;28;20061;-70
2022/10/24 17:02:03;;;;;;;5.35;1.55;;;;;;;18.36;55.59;99767.16;10381015;28;20045;-72
2022/10/24 17:07:05;;;;;;;4.72;1.63;;;;;;;18.26;55.91;99764.72;10375207;28;20048;-68
2022/10/24 17:12:07;;;;;;;6.15;2.00;;;;;;;18.19;56.13;99753.88;10380436;28;20059;-69
2022/10/24 17:17:08;;;;;;;4.13;1.60;;;;;;;18.14;56.41;99767.03;10391623;28;20060;-73
2022/10/24 17:22:10;;;;;;;3.67;1.10;;;;;;;18.07;57.01;99774.19;10375727;28;20065;-69
2022/10/24 17:27:13;;;;;;;4.40;1.58;;;;;;;18.05;57.11;99767.31;10380031;28;20053;-70
2022/10/24 17:32:15;;;;;;;3.90;1.40;;;;;;;17.99;57.80;99769.72;10377143;28;20037;-69
2022/10/24 17:37:27;;;;;;;4.97;2.17;;;;;;;17.97;58.01;99781.69;10383307;28;20282;-74
2022/10/24 17:42:28;;;;;;;5.22;1.50;;;;;;;17.86;58.28;99777.56;10375231;28;20652;-71
2022/10/24 17:47:29;;;;;;;5.03;1.77;;;;;;;17.81;58.40;99788.03;10374923;28;20048;-72
2022/10/24 17:52:31;;;;;;;5.43;1.85;;;;;;;17.73;58.46;99799.72;10372078;28;20060;-71
2022/10/24 17:57:32;;;;;;;3.90;1.27;;;;;;;17.70;58.65;99813.53;10375105;28;20128;-72
2022/10/24 18:02:33;;;;;;;7.68;1.48;;;;;;;17.64;58.53;99801.63;10375577;28;20191;-74
2022/10/24 18:07:35;;;;;;;4.57;1.30;;;;;;;17.70;58.99;99815.38;10371145;28;20044;-72
2022/10/24 18:12:38;;;;;;;5.75;1.63;;;;;;;17.65;59.42;99816.78;10378698;28;20063;-72
2022/10/24 18:17:40;;;;;;;5.43;1.73;;;;;;;17.60;59.89;99823.72;10390641;28;20045;-71
2022/10/24 18:22:42;;;;;;;8.02;1.92;;;;;;;17.52;60.63;99827.31;10389588;28;20056;-73
2022/10/24 18:27:44;;;;;;;9.63;2.20;;;;;;;17.43;61.07;99834.59;10416251;28;20168;-75
2022/10/24 18:32:46;;;;;;;6.07;1.92;;;;;;;17.38;61.66;99844.19;10443419;28;20048;-77
2022/10/24 18:37:49;;;;;;;7.55;2.13;;;;;;;17.28;61.98;99857.91;10437761;28;20375;-71
2022/10/24 18:43:03;;;;;;;5.47;1.48;;;;;;;17.29;62.60;99849.66;10439411;28;20083;-73
2022/10/24 18:48:04;;;;;;;;;;;;;;;17.22;62.62;99842.44;10400269;28;20045;-73
2022/10/24 18:53:15;;;;;;;5.15;1.65;;;;;;;17.17;62.98;99840.28;10410427;28;20563;-70
2022/10/24 18:58:22;;;;;;;5.18;1.70;;;;;;;17.04;63.40;99827.44;10391756;28;20056;-70
2022/10/24 19:03:32;;;;;;;5.90;1.95;;;;;;;17.04;63.91;99834.63;10403441;28;20090;-74
2022/10/24 19:08:34;;;;;;;6.47;1.40;;;;;;;16.99;63.86;99831.66;10408900;28;20079;-72
2022/10/24 19:13:35;;;;;;;3.92;1.00;;;;;;;16.97;63.93;99834.50;10389483;28;20290;-71
2022/10/24 19:18:37;;;;;;;7.55;1.60;;;;;;;16.96;64.17;99833.69;10396721;28;20045;-71
2022/10/24 19:23:38;;;;;;;3.75;1.40;;;;;;;16.92;63.85;99837.72;10399286;28;20048;-70
2022/10/24 19:28:39;;;;;;;6.10;2.13;;;;;;;16.86;64.53;99848.28;10397368;28;20137;-72
2022/10/24 19:33:41;;;;;;;7.03;1.90;;;;;;;16.82;64.13;99842.44;10400218;28;20722;-69
2022/10/24 19:38:42;;;;;;;6.25;2.78;;;;;;;16.82;64.63;99853.19;10396941;28;20056;-69
2022/10/24 19:43:44;;;;;;;4.50;1.35;;;;;;;16.85;64.43;99855.53;10397782;28;20060;-69
2022/10/24 19:48:47;;;;;;;5.07;1.23;;;;;;;16.86;64.73;99851.84;10403522;28;20056;-67
2022/10/24 19:53:50;;;;;;;7.35;2.13;;;;;;;16.76;65.09;99851.19;10401643;28;20049;-71
2022/10/24 19:58:53;;;;;;;7.82;2.55;;;;;;;16.68;65.33;99861.97;10394886;28;20080;-70
2022/10/24 20:03:55;;;;;;;5.28;1.27;;;;;;;16.61;65.56;99862.66;10400008;28;21047;-70
2022/10/24 20:08:57;;;;;;;4.63;1.13;;;;;;;16.53;65.71;99865.38;10396251;28;20045;-68
2022/10/24 20:13:58;;;;;;;5.53;1.55;;;;;;;16.49;66.11;99864.03;10391262;28;20049;-70
2022/10/24 20:18:59;;;;;;;4.20;1.30;;;;;;;16.50;67.28;99865.72;10400547;28;20056;-69
2022/10/24 20:24:01;;;;;;;6.72;1.17;;;;;;;16.44;67.08;99867.25;10401754;28;20111;-71
2022/10/24 20:29:02;;;;;;;4.07;1.90;;;;;;;16.42;67.95;99873.78;10408303;28;20084;-73
2022/10/24 20:34:08;;;;;;;5.40;1.45;;;;;;;16.40;68.44;99875.81;10414759;28;20492;-69
2022/10/24 20:39:12;;;;;;;4.57;1.50;;;;;;;16.34;69.18;99882.69;10402286;28;20057;-71
2022/10/24 20:44:14;;;;;;;4.65;1.23;;;;;;;16.30;70.91;99904.69;10400702;28;20060;-71
2022/10/24 20:49:15;;;;;;;4.00;1.80;;;;;;;16.34;71.85;99903.34;10405557;28;20056;-73
2022/10/24 20:54:18;;;;;;;13.23;9.02;;;;;;;16.33;73.58;99907.88;10396538;28;20106;-72
2022/10/24 20:59:19;;;;;;;5.65;2.28;;;;;;;16.32;74.91;99910.72;10398301;28;20041;-70
2022/10/24 21:04:20;;;;;;;6.85;2.53;;;;;;;16.20;78.09;99913.78;10390447;28;20460;-71
2022/10/24 21:09:22;;;;;;;7.70;2.60;;;;;;;16.14;81.39;99925.19;10393021;28;20654;-72
2022/10/24 21:14:23;;;;;;;6.57;2.28;;;;;;;16.13;82.54;99928.88;10393607;28;20060;-72
2022/10/24 21:19:25;;;;;;;8.02;2.72;;;;;;;16.00;84.83;99936.56;10393864;28;20060;-70
2022/10/24 21:24:26;;;;;;;6.95;2.63;;;;;;;15.96;86.15;99943.28;10393671;28;20639;-71
2022/10/24 21:29:28;;;;;;;5.50;2.40;;;;;;;15.88;87.88;99939.59;10423583;28;20060;-72
2022/10/24 21:34:34;;;;;;;3.70;2.58;;;;;;;15.83;88.44;99941.94;10399383;28;20056;-68
2022/10/24 21:39:35;;;;;;;4.97;2.08;;;;;;;15.80;87.45;99954.84;10443564;28;20049;-73
2022/10/24 21:44:36;;;;;;;6.35;2.30;;;;;;;15.71;88.28;99953.94;10449166;28;20059;-71
2022/10/24 21:49:38;;;;;;;6.30;3.22;;;;;;;15.60;88.49;99967.66;10434527;28;20060;-73
2022/10/24 21:54:39;;;;;;;5.28;2.35;;;;;;;15.51;88.85;99958.78;10434601;28;20715;-68
2022/10/24 21:59:41;;;;;;;4.55;1.60;;;;;;;15.43;88.60;99966.78;10435408;28;20124;-73
2022/10/24 22:04:43;;;;;;;5.93;1.90;;;;;;;15.40;87.76;99980.50;10417470;28;20076;-74
2022/10/24 22:09:44;;;;;;;2.90;1.83;;;;;;;15.45;87.19;99983.56;10418022;28;20048;-70
2022/10/24 22:14:45;;;;;;;4.32;1.52;;;;;;;15.37;86.83;99997.75;10425378;28;20075;-72
2022/10/24 22:19:47;;;;;;;6.07;1.38;;;;;;;15.22;87.18;99994.84;10427328;28;20056;-73
2022/10/24 22:24:48;;;;;;;2.92;1.55;;;;;;;15.23;86.95;99998.38;10429723;28;20072;-69
2022/10/24 22:29:49;;;;;;;7.13;5.25;;;;;;;15.13;87.49;100007.38;10431182;28;20048;-71
2022/10/24 22:34:50;;;;;;;4.68;1.63;;;;;;;15.10;86.99;100012.19;10433428;28;20789;-70
2022/10/24 22:39:52;;;;;;;3.38;1.50;;;;;;;14.97;87.12;100018.84;10434060;28;20059;-72
2022/10/24 22:44:54;;;;;;;4.13;1.50;;;;;;;14.93;87.76;100022.00;10430597;28;20791;-70
2022/10/24 22:50:20;;;;;;;3.40;1.35;;;;;;;14.93;87.90;100016.63;10429699;28;20418;-71
2022/10/24 22:55:33;;;;;;;3.30;0.80;;;;;;;14.92;86.59;100028.34;10424321;28;20536;-70
2022/10/24 23:00:34;;;;;;;4.28;2.10;;;;;;;14.84;86.98;100027.28;10439468;28;20056;-73
2022/10/24 23:05:58;;;;;;;4.80;1.15;;;;;;;14.70;87.15;100030.53;10440785;28;20048;-70
2022/10/24 23:11:00;;;;;;;5.23;1.53;;;;;;;14.74;86.80;100033.72;10418298;28;20085;-72
2022/10/24 23:16:12;;;;;;;3.90;1.20;;;;;;;14.65;86.73;100033.69;10436141;28;20619;-71
2022/10/24 23:21:30;;;;;;;4.63;1.20;;;;;;;14.64;86.44;100039.19;10437081;28;20044;-73
2022/10/24 23:26:41;;;;;;;3.28;1.77;;;;;;;14.59;86.88;100053.03;10477605;28;20065;-70
2022/10/24 23:31:43;;;;;;;2.78;0.77;;;;;;;14.62;86.06;100062.59;10427223;28;20142;-73